Погода Галибицына неделю

Тверская область, Россия

23 - 29 июля
  • 23июля
    Сегодня
    +11°
    +27°
    Практически безоблачно
    ВремяПогодаТемператураВлажностьДавлениеВетер, м/сВероятность осадков
    00:00Ясно и безоблачно+16°C92 %754 мм0.2 м/с2 %
    03:00Ясно и безоблачно+14°C95 %755 мм0.1 м/с2 %
    06:00Облачно с прояснениями+14°C93 %755 мм0.4 м/с2 %
    09:00Практически безоблачно+21°C75 %756 мм0.3 м/с2 %
    12:00Практически безоблачно+25°C50 %755 мм1.3 м/с5 %
    15:00Практически безоблачно+26°C43 %755 мм1.3 м/с2 %
    18:00Ясно и безоблачно+26°C44 %755 мм1.0 м/с2 %
    21:00Ясно и безоблачно+20°C70 %755 мм0.3 м/с2 %
  • 24июля
    Среда
    +12°
    +28°
    Небольшая облачность
    ВремяПогодаТемператураВлажностьДавлениеВетер, м/сВероятность осадков
    00:00Ясно и безоблачно+14°C79 %755 мм0.4 м/с2 %
    03:00Ясно и безоблачно+12°C77 %755 мм0.0 м/с2 %
    06:00Ясно и безоблачно+12°C79 %755 мм0.2 м/с2 %
    09:00Ясно и безоблачно+21°C68 %755 мм0.0 м/с2 %
    12:00Ясно и безоблачно+25°C47 %755 мм0.9 м/с2 %
    15:00Небольшая облачность+26°C39 %754 мм0.7 м/с2 %
    18:00Практически безоблачно+27°C39 %753 мм0.4 м/с2 %
    21:00Небольшая облачность+21°C61 %753 мм0.0 м/с2 %
  • 25июля
    Четверг
    +14°
    +29°
    Практически безоблачно
    ВремяПогодаТемператураВлажностьДавлениеВетер, м/сВероятность осадков
    00:00Практически безоблачно+16°C66 %753 мм0.0 м/с2 %
    03:00Ясно и безоблачно+13°C84 %753 мм0.0 м/с2 %
    06:00Ясно и безоблачно+14°C82 %753 мм0.0 м/с2 %
    09:00Облачно с прояснениями+22°C68 %753 мм0.0 м/с2 %
    12:00Практически безоблачно+27°C43 %753 мм0.2 м/с3 %
    15:00Практически безоблачно+27°C42 %753 мм0.0 м/с9 %
    18:00Практически безоблачно+28°C46 %752 мм0.6 м/с17 %
    21:00Ясно и безоблачно+22°C70 %753 мм0.2 м/с7 %
  • 26июля
    Пятница
    +14°
    +28°
    Небольшая облачность
    ВремяПогодаТемператураВлажностьДавлениеВетер, м/сВероятность осадков
    00:00Ясно и безоблачно+16°C72 %753 мм0.0 м/с2 %
    03:00Ясно и безоблачно+15°C81 %753 мм0.0 м/с2 %
    06:00Ясно и безоблачно+15°C84 %753 мм0.0 м/с2 %
    09:00Ясно и безоблачно+23°C64 %754 мм0.0 м/с2 %
    12:00Практически безоблачно+27°C49 %755 мм0.0 м/с18 %
    15:00Небольшая облачность+27°C49 %755 мм0.0 м/с21 %
    18:00Небольшая облачность+27°C52 %755 мм0.7 м/с37 %
    21:00Ясно и безоблачно+22°C78 %756 мм0.0 м/с13 %
  • 27июля
    Суббота
    +16°
    +29°
    Практически безоблачно
    ВремяПогодаТемператураВлажностьДавлениеВетер, м/сВероятность осадков
    00:00Ясно и безоблачно+17°C90 %756 мм0.0 м/с3 %
    03:00Ясно и безоблачно+15°C94 %757 мм0.0 м/с3 %
    06:00Ясно и безоблачно+16°C93 %757 мм0.3 м/с8 %
    09:00Ясно и безоблачно+22°C73 %758 мм0.0 м/с5 %
    12:00Ясно и безоблачно+27°C55 %758 мм0.5 м/с26 %
    15:00Практически безоблачно+29°C52 %758 мм0.2 м/с37 %
    18:00Практически безоблачно+27°C61 %758 мм1.1 м/с49 %
    21:00Ясно и безоблачно+22°C79 %758 мм0.0 м/с21 %
Мы используем cookies
Соглашаюсь